首页
METAR-TAF:

METAR-TAF

机场 :

空军基地 Cameri

諾瓦拉, 意大利

纬度: 45-31N, 经度: 008-40E, 海拔: 178米

当前天气观测

该预报发布于46分钟前的13:55 UTC
风速6节,风向西转西南,在西之间变化
温度 31°C
湿度 63%
气压 1021 hPa
能见度10公里或以上
少量云层高于3000英尺

METAR: LIMN 221355Z 24006KT 190V280 9999 FEW030 31/23 Q1021 RMK SCT SCT200 VIS MIN 9999 BLK BLU

时间: 16:41 (14:41 UTC)

预报

该预报发布于41分钟前的14:00 UTC
预报有效从22日的 15点(UTC)到 22日的 24点(UTC)
风速5节,风向
能见度10公里或以上
散云层高于4000英尺

TAF: LIMN 221400Z 2215/2224 01005KT 9999 SCT040

超过4000个机场的气象观测和天气预报(METAR&TAF报告)。

可查询的气象台以黄色和红色小点在地图上表示。

将鼠标移到小点上方,可查看气象台名称。

然后点击查看天气观测和预报。

如需切换地图:点击带黑十字的绿色按钮放大地图;点击带横线的绿色按钮缩小地图;或者点击绿色箭头查看邻近地区的地图。


METAR-TAF: